sensor_id;sensor_type;location;lat;lon;timestamp;P1;durP1;ratioP1;P2;durP2;ratioP2
5987;SDS011;3021;51.000;6.980;2023-02-12T00:01:35;85.63;;;41.20;;
5987;SDS011;3021;51.000;6.980;2023-02-12T00:04:01;82.72;;;38.33;;
5987;SDS011;3021;51.000;6.980;2023-02-12T00:06:26;84.30;;;40.00;;
5987;SDS011;3021;51.000;6.980;2023-02-12T00:08:53;80.30;;;39.92;;
5987;SDS011;3021;51.000;6.980;2023-02-12T00:11:24;90.93;;;40.67;;
5987;SDS011;3021;51.000;6.980;2023-02-12T00:13:51;83.18;;;40.67;;
5987;SDS011;3021;51.000;6.980;2023-02-12T00:16:19;84.38;;;40.35;;
5987;SDS011;3021;51.000;6.980;2023-02-12T00:18:50;86.75;;;42.13;;
5987;SDS011;3021;51.000;6.980;2023-02-12T00:21:17;85.18;;;41.28;;
5987;SDS011;3021;51.000;6.980;2023-02-12T00:23:42;86.15;;;41.45;;
5987;SDS011;3021;51.000;6.980;2023-02-12T00:26:12;83.65;;;40.25;;
5987;SDS011;3021;51.000;6.980;2023-02-12T00:28:38;91.47;;;41.67;;
5987;SDS011;3021;51.000;6.980;2023-02-12T00:31:05;92.03;;;41.65;;
5987;SDS011;3021;51.000;6.980;2023-02-12T00:33:36;91.35;;;41.45;;
5987;SDS011;3021;51.000;6.980;2023-02-12T00:36:01;90.68;;;41.97;;
5987;SDS011;3021;51.000;6.980;2023-02-12T00:38:27;84.30;;;40.50;;
5987;SDS011;3021;51.000;6.980;2023-02-12T00:40:52;88.30;;;42.05;;
5987;SDS011;3021;51.000;6.980;2023-02-12T00:43:18;83.45;;;41.20;;
5987;SDS011;3021;51.000;6.980;2023-02-12T00:45:44;86.90;;;41.63;;
5987;SDS011;3021;51.000;6.980;2023-02-12T00:48:10;86.78;;;41.10;;
5987;SDS011;3021;51.000;6.980;2023-02-12T00:50:35;89.78;;;42.75;;
5987;SDS011;3021;51.000;6.980;2023-02-12T00:53:01;91.63;;;41.90;;
5987;SDS011;3021;51.000;6.980;2023-02-12T00:55:26;82.10;;;39.85;;
5987;SDS011;3021;51.000;6.980;2023-02-12T00:57:51;84.03;;;41.30;;
5987;SDS011;3021;51.000;6.980;2023-02-12T01:00:17;83.05;;;40.15;;
5987;SDS011;3021;51.000;6.980;2023-02-12T01:02:42;77.85;;;39.50;;
5987;SDS011;3021;51.000;6.980;2023-02-12T01:05:07;87.63;;;42.63;;
5987;SDS011;3021;51.000;6.980;2023-02-12T01:07:34;84.32;;;40.70;;
5987;SDS011;3021;51.000;6.980;2023-02-12T01:10:00;87.93;;;42.72;;
5987;SDS011;3021;51.000;6.980;2023-02-12T01:12:25;90.13;;;41.38;;
5987;SDS011;3021;51.000;6.980;2023-02-12T01:14:50;92.00;;;42.03;;
5987;SDS011;3021;51.000;6.980;2023-02-12T01:17:16;82.15;;;40.40;;
5987;SDS011;3021;51.000;6.980;2023-02-12T01:19:41;96.30;;;44.28;;
5987;SDS011;3021;51.000;6.980;2023-02-12T01:22:07;102.18;;;45.58;;
5987;SDS011;3021;51.000;6.980;2023-02-12T01:24:32;89.55;;;43.53;;
5987;SDS011;3021;51.000;6.980;2023-02-12T01:26:57;93.45;;;45.28;;
5987;SDS011;3021;51.000;6.980;2023-02-12T01:29:23;103.28;;;46.08;;
5987;SDS011;3021;51.000;6.980;2023-02-12T01:31:48;95.70;;;46.38;;
5987;SDS011;3021;51.000;6.980;2023-02-12T01:34:13;84.47;;;42.78;;
5987;SDS011;3021;51.000;6.980;2023-02-12T01:36:39;99.03;;;44.65;;
5987;SDS011;3021;51.000;6.980;2023-02-12T01:39:04;84.18;;;43.15;;
5987;SDS011;3021;51.000;6.980;2023-02-12T01:41:38;85.63;;;41.35;;
5987;SDS011;3021;51.000;6.980;2023-02-12T01:44:17;98.43;;;44.45;;
5987;SDS011;3021;51.000;6.980;2023-02-12T01:46:43;91.75;;;42.40;;
5987;SDS011;3021;51.000;6.980;2023-02-12T01:49:15;93.82;;;42.13;;
5987;SDS011;3021;51.000;6.980;2023-02-12T01:51:44;80.88;;;40.05;;
5987;SDS011;3021;51.000;6.980;2023-02-12T01:54:14;84.72;;;42.17;;
5987;SDS011;3021;51.000;6.980;2023-02-12T01:56:41;88.93;;;43.60;;
5987;SDS011;3021;51.000;6.980;2023-02-12T01:59:08;93.15;;;44.92;;
5987;SDS011;3021;51.000;6.980;2023-02-12T02:01:34;90.57;;;42.80;;
5987;SDS011;3021;51.000;6.980;2023-02-12T02:04:01;88.68;;;43.75;;
5987;SDS011;3021;51.000;6.980;2023-02-12T02:06:33;86.85;;;42.55;;
5987;SDS011;3021;51.000;6.980;2023-02-12T02:09:02;89.13;;;43.00;;
5987;SDS011;3021;51.000;6.980;2023-02-12T02:11:28;87.22;;;43.47;;
5987;SDS011;3021;51.000;6.980;2023-02-12T02:14:12;93.43;;;44.03;;
5987;SDS011;3021;51.000;6.980;2023-02-12T02:17:02;89.20;;;44.20;;
5987;SDS011;3021;51.000;6.980;2023-02-12T02:24:56;83.25;;;41.67;;
5987;SDS011;3021;51.000;6.980;2023-02-12T02:36:13;91.47;;;43.33;;
5987;SDS011;3021;51.000;6.980;2023-02-12T02:41:35;87.18;;;42.88;;
5987;SDS011;3021;51.000;6.980;2023-02-12T02:44:16;91.53;;;43.95;;
5987;SDS011;3021;51.000;6.980;2023-02-12T02:46:46;85.90;;;41.63;;
5987;SDS011;3021;51.000;6.980;2023-02-12T02:49:18;89.68;;;44.13;;
5987;SDS011;3021;51.000;6.980;2023-02-12T02:51:49;90.15;;;43.92;;
5987;SDS011;3021;51.000;6.980;2023-02-12T02:54:20;87.82;;;42.50;;
5987;SDS011;3021;51.000;6.980;2023-02-12T02:56:54;94.32;;;42.35;;
5987;SDS011;3021;51.000;6.980;2023-02-12T02:59:25;89.90;;;42.58;;
5987;SDS011;3021;51.000;6.980;2023-02-12T03:02:00;84.60;;;40.63;;
5987;SDS011;3021;51.000;6.980;2023-02-12T03:04:32;82.72;;;41.00;;
5987;SDS011;3021;51.000;6.980;2023-02-12T03:07:10;83.05;;;40.45;;
5987;SDS011;3021;51.000;6.980;2023-02-12T03:09:46;76.13;;;38.75;;
5987;SDS011;3021;51.000;6.980;2023-02-12T03:12:59;86.00;;;43.42;;
5987;SDS011;3021;51.000;6.980;2023-02-12T03:15:10;82.40;;;40.55;;
5987;SDS011;3021;51.000;6.980;2023-02-12T03:17:41;85.38;;;40.13;;
5987;SDS011;3021;51.000;6.980;2023-02-12T03:22:52;82.88;;;41.90;;
5987;SDS011;3021;51.000;6.980;2023-02-12T03:25:25;81.43;;;39.47;;
5987;SDS011;3021;51.000;6.980;2023-02-12T03:36:05;75.45;;;37.83;;
5987;SDS011;3021;51.000;6.980;2023-02-12T03:38:47;74.00;;;37.17;;
5987;SDS011;3021;51.000;6.980;2023-02-12T03:41:23;78.10;;;38.63;;
5987;SDS011;3021;51.000;6.980;2023-02-12T03:44:10;73.32;;;37.25;;
5987;SDS011;3021;51.000;6.980;2023-02-12T03:52:09;71.85;;;36.90;;
5987;SDS011;3021;51.000;6.980;2023-02-12T03:54:35;73.30;;;37.35;;
5987;SDS011;3021;51.000;6.980;2023-02-12T03:57:02;74.68;;;36.88;;
5987;SDS011;3021;51.000;6.980;2023-02-12T03:59:32;73.40;;;36.58;;
5987;SDS011;3021;51.000;6.980;2023-02-12T04:02:00;72.97;;;36.85;;
5987;SDS011;3021;51.000;6.980;2023-02-12T04:04:25;66.85;;;35.92;;
5987;SDS011;3021;51.000;6.980;2023-02-12T04:06:51;70.47;;;35.28;;
5987;SDS011;3021;51.000;6.980;2023-02-12T04:09:18;75.25;;;36.85;;
5987;SDS011;3021;51.000;6.980;2023-02-12T04:12:01;72.88;;;37.15;;
5987;SDS011;3021;51.000;6.980;2023-02-12T04:17:05;71.25;;;36.22;;
5987;SDS011;3021;51.000;6.980;2023-02-12T04:19:58;73.47;;;35.28;;
5987;SDS011;3021;51.000;6.980;2023-02-12T04:33:32;73.32;;;35.10;;
5987;SDS011;3021;51.000;6.980;2023-02-12T04:36:09;68.13;;;34.38;;
5987;SDS011;3021;51.000;6.980;2023-02-12T04:38:54;66.85;;;34.20;;
5987;SDS011;3021;51.000;6.980;2023-02-12T04:41:24;62.47;;;34.30;;
5987;SDS011;3021;51.000;6.980;2023-02-12T04:43:50;73.20;;;34.70;;
5987;SDS011;3021;51.000;6.980;2023-02-12T04:46:15;70.57;;;34.65;;
5987;SDS011;3021;51.000;6.980;2023-02-12T04:48:59;67.30;;;34.55;;
5987;SDS011;3021;51.000;6.980;2023-02-12T04:51:24;70.43;;;34.95;;
5987;SDS011;3021;51.000;6.980;2023-02-12T04:53:49;62.90;;;33.28;;
5987;SDS011;3021;51.000;6.980;2023-02-12T04:56:15;62.33;;;34.38;;
5987;SDS011;3021;51.000;6.980;2023-02-12T04:58:41;65.22;;;34.00;;
5987;SDS011;3021;51.000;6.980;2023-02-12T05:01:07;66.68;;;35.33;;
5987;SDS011;3021;51.000;6.980;2023-02-12T05:03:33;62.78;;;34.85;;
5987;SDS011;3021;51.000;6.980;2023-02-12T05:06:03;66.15;;;33.78;;
5987;SDS011;3021;51.000;6.980;2023-02-12T05:08:33;66.82;;;34.60;;
5987;SDS011;3021;51.000;6.980;2023-02-12T05:11:05;63.60;;;34.63;;
5987;SDS011;3021;51.000;6.980;2023-02-12T05:13:32;63.13;;;32.90;;
5987;SDS011;3021;51.000;6.980;2023-02-12T05:15:57;67.93;;;34.53;;
5987;SDS011;3021;51.000;6.980;2023-02-12T05:18:23;67.22;;;34.05;;
5987;SDS011;3021;51.000;6.980;2023-02-12T05:20:57;63.42;;;33.75;;
5987;SDS011;3021;51.000;6.980;2023-02-12T05:23:27;64.30;;;34.00;;
5987;SDS011;3021;51.000;6.980;2023-02-12T05:25:54;61.90;;;33.70;;
5987;SDS011;3021;51.000;6.980;2023-02-12T05:28:23;66.05;;;33.47;;
5987;SDS011;3021;51.000;6.980;2023-02-12T05:30:49;69.47;;;34.72;;
5987;SDS011;3021;51.000;6.980;2023-02-12T05:33:14;66.13;;;34.10;;
5987;SDS011;3021;51.000;6.980;2023-02-12T05:35:39;66.05;;;34.35;;
5987;SDS011;3021;51.000;6.980;2023-02-12T05:38:05;66.65;;;32.90;;
5987;SDS011;3021;51.000;6.980;2023-02-12T05:40:30;65.45;;;33.92;;
5987;SDS011;3021;51.000;6.980;2023-02-12T05:42:55;68.00;;;34.47;;
5987;SDS011;3021;51.000;6.980;2023-02-12T05:45:21;67.50;;;35.53;;
5987;SDS011;3021;51.000;6.980;2023-02-12T05:47:51;62.28;;;33.00;;
5987;SDS011;3021;51.000;6.980;2023-02-12T05:50:17;72.25;;;34.60;;
5987;SDS011;3021;51.000;6.980;2023-02-12T05:52:42;69.93;;;34.80;;
5987;SDS011;3021;51.000;6.980;2023-02-12T05:55:07;64.43;;;34.80;;
5987;SDS011;3021;51.000;6.980;2023-02-12T05:57:33;69.05;;;36.38;;
5987;SDS011;3021;51.000;6.980;2023-02-12T05:59:58;65.13;;;33.85;;
5987;SDS011;3021;51.000;6.980;2023-02-12T06:02:26;62.05;;;32.83;;
5987;SDS011;3021;51.000;6.980;2023-02-12T06:04:53;64.70;;;33.67;;
5987;SDS011;3021;51.000;6.980;2023-02-12T06:07:18;63.55;;;34.80;;
5987;SDS011;3021;51.000;6.980;2023-02-12T06:09:43;73.05;;;36.08;;
5987;SDS011;3021;51.000;6.980;2023-02-12T06:12:09;73.57;;;36.33;;
5987;SDS011;3021;51.000;6.980;2023-02-12T06:14:34;71.95;;;35.40;;
5987;SDS011;3021;51.000;6.980;2023-02-12T06:17:00;61.90;;;34.03;;
5987;SDS011;3021;51.000;6.980;2023-02-12T06:19:25;65.55;;;34.95;;
5987;SDS011;3021;51.000;6.980;2023-02-12T06:21:50;65.70;;;35.33;;
5987;SDS011;3021;51.000;6.980;2023-02-12T06:24:18;68.32;;;36.00;;
5987;SDS011;3021;51.000;6.980;2023-02-12T06:26:44;62.92;;;33.85;;
5987;SDS011;3021;51.000;6.980;2023-02-12T06:29:09;66.55;;;36.03;;
5987;SDS011;3021;51.000;6.980;2023-02-12T06:31:35;72.22;;;34.72;;
5987;SDS011;3021;51.000;6.980;2023-02-12T06:34:02;66.60;;;35.03;;
5987;SDS011;3021;51.000;6.980;2023-02-12T06:36:29;70.50;;;37.53;;
5987;SDS011;3021;51.000;6.980;2023-02-12T06:38:55;67.38;;;34.70;;
5987;SDS011;3021;51.000;6.980;2023-02-12T06:41:20;68.45;;;34.38;;
5987;SDS011;3021;51.000;6.980;2023-02-12T06:43:47;74.25;;;36.03;;
5987;SDS011;3021;51.000;6.980;2023-02-12T06:46:12;68.82;;;36.50;;
5987;SDS011;3021;51.000;6.980;2023-02-12T06:48:38;68.97;;;34.17;;
5987;SDS011;3021;51.000;6.980;2023-02-12T06:51:04;70.32;;;35.13;;
5987;SDS011;3021;51.000;6.980;2023-02-12T06:53:32;70.38;;;35.50;;
5987;SDS011;3021;51.000;6.980;2023-02-12T06:55:59;67.57;;;35.35;;
5987;SDS011;3021;51.000;6.980;2023-02-12T06:58:28;68.47;;;35.30;;
5987;SDS011;3021;51.000;6.980;2023-02-12T07:00:54;66.93;;;36.80;;
5987;SDS011;3021;51.000;6.980;2023-02-12T07:03:19;71.75;;;36.20;;
5987;SDS011;3021;51.000;6.980;2023-02-12T07:05:44;72.75;;;37.22;;
5987;SDS011;3021;51.000;6.980;2023-02-12T07:08:12;73.13;;;37.55;;
5987;SDS011;3021;51.000;6.980;2023-02-12T07:10:37;68.55;;;35.25;;
5987;SDS011;3021;51.000;6.980;2023-02-12T07:13:03;67.25;;;35.85;;
5987;SDS011;3021;51.000;6.980;2023-02-12T07:15:31;68.75;;;36.22;;
5987;SDS011;3021;51.000;6.980;2023-02-12T07:17:57;81.65;;;37.83;;
5987;SDS011;3021;51.000;6.980;2023-02-12T07:20:22;68.07;;;35.72;;
5987;SDS011;3021;51.000;6.980;2023-02-12T07:22:47;71.90;;;36.17;;
5987;SDS011;3021;51.000;6.980;2023-02-12T07:25:13;65.90;;;35.63;;
5987;SDS011;3021;51.000;6.980;2023-02-12T07:27:38;68.80;;;35.72;;
5987;SDS011;3021;51.000;6.980;2023-02-12T07:30:04;65.70;;;35.00;;
5987;SDS011;3021;51.000;6.980;2023-02-12T07:32:33;73.15;;;35.97;;
5987;SDS011;3021;51.000;6.980;2023-02-12T07:35:01;70.00;;;36.47;;
5987;SDS011;3021;51.000;6.980;2023-02-12T07:37:27;70.63;;;35.22;;
5987;SDS011;3021;51.000;6.980;2023-02-12T07:39:52;67.88;;;35.45;;
5987;SDS011;3021;51.000;6.980;2023-02-12T07:42:17;67.03;;;35.17;;
5987;SDS011;3021;51.000;6.980;2023-02-12T07:44:43;71.28;;;35.60;;
5987;SDS011;3021;51.000;6.980;2023-02-12T07:47:09;64.63;;;34.08;;
5987;SDS011;3021;51.000;6.980;2023-02-12T07:49:34;71.65;;;35.50;;
5987;SDS011;3021;51.000;6.980;2023-02-12T07:52:00;70.35;;;35.92;;
5987;SDS011;3021;51.000;6.980;2023-02-12T07:54:25;72.30;;;36.60;;
5987;SDS011;3021;51.000;6.980;2023-02-12T07:56:50;73.97;;;36.13;;
5987;SDS011;3021;51.000;6.980;2023-02-12T07:59:16;64.30;;;34.25;;
5987;SDS011;3021;51.000;6.980;2023-02-12T08:01:52;73.03;;;35.42;;
5987;SDS011;3021;51.000;6.980;2023-02-12T08:04:18;70.88;;;35.95;;
5987;SDS011;3021;51.000;6.980;2023-02-12T08:06:46;69.30;;;36.92;;
5987;SDS011;3021;51.000;6.980;2023-02-12T08:09:17;69.22;;;35.80;;
5987;SDS011;3021;51.000;6.980;2023-02-12T08:11:45;67.63;;;35.75;;
5987;SDS011;3021;51.000;6.980;2023-02-12T08:14:11;65.93;;;35.38;;
5987;SDS011;3021;51.000;6.980;2023-02-12T08:16:39;63.33;;;34.78;;
5987;SDS011;3021;51.000;6.980;2023-02-12T08:19:06;67.03;;;34.10;;
5987;SDS011;3021;51.000;6.980;2023-02-12T08:21:32;66.35;;;34.58;;
5987;SDS011;3021;51.000;6.980;2023-02-12T08:23:57;69.63;;;35.13;;
5987;SDS011;3021;51.000;6.980;2023-02-12T08:31:27;66.60;;;35.33;;
5987;SDS011;3021;51.000;6.980;2023-02-12T08:33:54;67.40;;;34.60;;
5987;SDS011;3021;51.000;6.980;2023-02-12T08:36:21;62.53;;;34.42;;
5987;SDS011;3021;51.000;6.980;2023-02-12T08:38:51;70.35;;;35.40;;
5987;SDS011;3021;51.000;6.980;2023-02-12T08:41:23;67.65;;;36.10;;
5987;SDS011;3021;51.000;6.980;2023-02-12T08:43:51;70.32;;;35.88;;
5987;SDS011;3021;51.000;6.980;2023-02-12T08:46:19;67.88;;;34.80;;
5987;SDS011;3021;51.000;6.980;2023-02-12T08:48:53;70.93;;;35.05;;
5987;SDS011;3021;51.000;6.980;2023-02-12T08:51:21;70.65;;;35.95;;
5987;SDS011;3021;51.000;6.980;2023-02-12T08:53:50;69.95;;;36.72;;
5987;SDS011;3021;51.000;6.980;2023-02-12T08:56:18;71.50;;;35.22;;
5987;SDS011;3021;51.000;6.980;2023-02-12T08:58:44;75.50;;;37.28;;
5987;SDS011;3021;51.000;6.980;2023-02-12T09:01:11;68.78;;;34.72;;
5987;SDS011;3021;51.000;6.980;2023-02-12T09:03:38;72.60;;;36.10;;
5987;SDS011;3021;51.000;6.980;2023-02-12T09:06:04;71.82;;;36.25;;
5987;SDS011;3021;51.000;6.980;2023-02-12T09:08:30;74.15;;;37.13;;
5987;SDS011;3021;51.000;6.980;2023-02-12T09:10:56;67.88;;;36.88;;
5987;SDS011;3021;51.000;6.980;2023-02-12T09:13:22;74.28;;;36.65;;
5987;SDS011;3021;51.000;6.980;2023-02-12T09:15:47;69.25;;;36.58;;
5987;SDS011;3021;51.000;6.980;2023-02-12T09:18:13;70.68;;;37.67;;
5987;SDS011;3021;51.000;6.980;2023-02-12T09:20:40;70.40;;;36.65;;
5987;SDS011;3021;51.000;6.980;2023-02-12T09:23:11;72.97;;;36.90;;
5987;SDS011;3021;51.000;6.980;2023-02-12T09:25:41;70.78;;;35.97;;
5987;SDS011;3021;51.000;6.980;2023-02-12T09:28:09;77.60;;;40.67;;
5987;SDS011;3021;51.000;6.980;2023-02-12T09:30:36;79.43;;;39.90;;
5987;SDS011;3021;51.000;6.980;2023-02-12T09:33:03;79.68;;;40.33;;
5987;SDS011;3021;51.000;6.980;2023-02-12T09:35:29;74.93;;;36.42;;
5987;SDS011;3021;51.000;6.980;2023-02-12T09:37:54;83.07;;;39.00;;
5987;SDS011;3021;51.000;6.980;2023-02-12T09:40:21;80.78;;;39.22;;
5987;SDS011;3021;51.000;6.980;2023-02-12T09:43:11;78.10;;;38.55;;
5987;SDS011;3021;51.000;6.980;2023-02-12T09:45:49;74.93;;;38.85;;
5987;SDS011;3021;51.000;6.980;2023-02-12T09:48:41;69.93;;;38.30;;
5987;SDS011;3021;51.000;6.980;2023-02-12T09:51:09;80.53;;;40.47;;
5987;SDS011;3021;51.000;6.980;2023-02-12T09:53:40;78.13;;;40.03;;
5987;SDS011;3021;51.000;6.980;2023-02-12T09:56:14;74.75;;;39.75;;
5987;SDS011;3021;51.000;6.980;2023-02-12T09:58:51;78.60;;;38.67;;
5987;SDS011;3021;51.000;6.980;2023-02-12T10:01:20;71.20;;;36.95;;
5987;SDS011;3021;51.000;6.980;2023-02-12T10:03:47;67.90;;;36.90;;
5987;SDS011;3021;51.000;6.980;2023-02-12T10:06:21;70.82;;;37.15;;
5987;SDS011;3021;51.000;6.980;2023-02-12T10:09:07;71.93;;;38.05;;
5987;SDS011;3021;51.000;6.980;2023-02-12T10:11:47;73.40;;;37.90;;
5987;SDS011;3021;51.000;6.980;2023-02-12T10:23:24;68.15;;;35.95;;
5987;SDS011;3021;51.000;6.980;2023-02-12T10:26:16;70.60;;;36.78;;
5987;SDS011;3021;51.000;6.980;2023-02-12T10:28:45;67.80;;;36.28;;
5987;SDS011;3021;51.000;6.980;2023-02-12T10:33:40;67.40;;;35.83;;
5987;SDS011;3021;51.000;6.980;2023-02-12T10:36:12;66.03;;;34.25;;
5987;SDS011;3021;51.000;6.980;2023-02-12T10:38:38;66.90;;;33.63;;
5987;SDS011;3021;51.000;6.980;2023-02-12T10:41:08;61.80;;;33.55;;
5987;SDS011;3021;51.000;6.980;2023-02-12T10:43:36;62.38;;;32.72;;
5987;SDS011;3021;51.000;6.980;2023-02-12T10:46:01;64.38;;;35.58;;
5987;SDS011;3021;51.000;6.980;2023-02-12T10:48:37;57.75;;;32.45;;
5987;SDS011;3021;51.000;6.980;2023-02-12T10:53:43;65.30;;;34.33;;
5987;SDS011;3021;51.000;6.980;2023-02-12T11:01:24;55.75;;;29.80;;
5987;SDS011;3021;51.000;6.980;2023-02-12T11:03:50;56.28;;;31.40;;
5987;SDS011;3021;51.000;6.980;2023-02-12T11:06:20;53.20;;;30.00;;
5987;SDS011;3021;51.000;6.980;2023-02-12T11:08:47;51.00;;;29.05;;
5987;SDS011;3021;51.000;6.980;2023-02-12T11:11:15;56.28;;;29.90;;
5987;SDS011;3021;51.000;6.980;2023-02-12T11:13:45;51.65;;;28.25;;
5987;SDS011;3021;51.000;6.980;2023-02-12T11:16:25;46.75;;;25.15;;
5987;SDS011;3021;51.000;6.980;2023-02-12T11:19:38;35.42;;;19.13;;
5987;SDS011;3021;51.000;6.980;2023-02-12T11:21:47;38.00;;;17.93;;
5987;SDS011;3021;51.000;6.980;2023-02-12T11:24:20;32.97;;;19.15;;
5987;SDS011;3021;51.000;6.980;2023-02-12T11:26:46;30.92;;;17.83;;
5987;SDS011;3021;51.000;6.980;2023-02-12T11:29:16;33.25;;;17.45;;
5987;SDS011;3021;51.000;6.980;2023-02-12T11:31:58;33.85;;;19.33;;
5987;SDS011;3021;51.000;6.980;2023-02-12T11:34:25;38.58;;;20.95;;
5987;SDS011;3021;51.000;6.980;2023-02-12T11:36:53;35.60;;;20.15;;
5987;SDS011;3021;51.000;6.980;2023-02-12T11:42:00;39.20;;;22.27;;
5987;SDS011;3021;51.000;6.980;2023-02-12T11:44:36;39.67;;;21.98;;
5987;SDS011;3021;51.000;6.980;2023-02-12T11:47:05;43.15;;;22.92;;
5987;SDS011;3021;51.000;6.980;2023-02-12T11:49:41;40.95;;;22.15;;
5987;SDS011;3021;51.000;6.980;2023-02-12T11:52:20;43.00;;;23.25;;
5987;SDS011;3021;51.000;6.980;2023-02-12T11:54:48;42.90;;;22.23;;
5987;SDS011;3021;51.000;6.980;2023-02-12T11:59:59;38.35;;;21.10;;
5987;SDS011;3021;51.000;6.980;2023-02-12T12:02:30;44.90;;;21.45;;
5987;SDS011;3021;51.000;6.980;2023-02-12T12:05:07;40.42;;;21.10;;
5987;SDS011;3021;51.000;6.980;2023-02-12T12:07:37;41.10;;;21.83;;
5987;SDS011;3021;51.000;6.980;2023-02-12T12:10:10;36.17;;;20.65;;
5987;SDS011;3021;51.000;6.980;2023-02-12T12:18:33;36.17;;;20.40;;
5987;SDS011;3021;51.000;6.980;2023-02-12T12:27:03;43.20;;;21.48;;
5987;SDS011;3021;51.000;6.980;2023-02-12T12:29:57;38.42;;;21.35;;
5987;SDS011;3021;51.000;6.980;2023-02-12T12:32:30;40.22;;;23.02;;
5987;SDS011;3021;51.000;6.980;2023-02-12T12:34:59;39.53;;;22.38;;
5987;SDS011;3021;51.000;6.980;2023-02-12T12:37:28;38.30;;;21.17;;
5987;SDS011;3021;51.000;6.980;2023-02-12T12:48:16;39.08;;;20.70;;
5987;SDS011;3021;51.000;6.980;2023-02-12T12:56:07;34.70;;;19.20;;
5987;SDS011;3021;51.000;6.980;2023-02-12T13:10:02;29.00;;;15.90;;
5987;SDS011;3021;51.000;6.980;2023-02-12T13:28:57;28.02;;;16.58;;
5987;SDS011;3021;51.000;6.980;2023-02-12T13:31:29;31.25;;;17.13;;
5987;SDS011;3021;51.000;6.980;2023-02-12T13:34:01;28.50;;;16.00;;
5987;SDS011;3021;51.000;6.980;2023-02-12T13:36:32;28.10;;;15.65;;
5987;SDS011;3021;51.000;6.980;2023-02-12T13:39:03;30.88;;;16.60;;
5987;SDS011;3021;51.000;6.980;2023-02-12T13:41:44;32.22;;;17.60;;
5987;SDS011;3021;51.000;6.980;2023-02-12T13:44:21;29.85;;;16.73;;
5987;SDS011;3021;51.000;6.980;2023-02-12T13:47:09;31.20;;;17.10;;
5987;SDS011;3021;51.000;6.980;2023-02-12T13:49:50;29.88;;;17.42;;
5987;SDS011;3021;51.000;6.980;2023-02-12T14:03:24;36.75;;;21.63;;
5987;SDS011;3021;51.000;6.980;2023-02-12T14:08:46;35.28;;;19.52;;
5987;SDS011;3021;51.000;6.980;2023-02-12T14:11:15;37.58;;;20.05;;
5987;SDS011;3021;51.000;6.980;2023-02-12T14:16:19;33.72;;;20.20;;
5987;SDS011;3021;51.000;6.980;2023-02-12T14:18:44;35.72;;;20.73;;
5987;SDS011;3021;51.000;6.980;2023-02-12T14:23:35;35.22;;;19.83;;
5987;SDS011;3021;51.000;6.980;2023-02-12T14:26:02;41.28;;;22.55;;
5987;SDS011;3021;51.000;6.980;2023-02-12T14:28:33;36.40;;;21.08;;
5987;SDS011;3021;51.000;6.980;2023-02-12T14:36:36;35.58;;;20.02;;
5987;SDS011;3021;51.000;6.980;2023-02-12T14:41:46;36.75;;;21.13;;
5987;SDS011;3021;51.000;6.980;2023-02-12T14:46:46;40.90;;;21.70;;
5987;SDS011;3021;51.000;6.980;2023-02-12T14:54:36;39.63;;;20.63;;
5987;SDS011;3021;51.000;6.980;2023-02-12T14:57:08;38.40;;;20.48;;
5987;SDS011;3021;51.000;6.980;2023-02-12T14:59:46;37.55;;;19.30;;
5987;SDS011;3021;51.000;6.980;2023-02-12T15:02:15;36.85;;;20.50;;
5987;SDS011;3021;51.000;6.980;2023-02-12T15:04:47;34.05;;;20.75;;
5987;SDS011;3021;51.000;6.980;2023-02-12T15:07:19;36.10;;;19.85;;
5987;SDS011;3021;51.000;6.980;2023-02-12T15:09:54;38.58;;;19.65;;
5987;SDS011;3021;51.000;6.980;2023-02-12T15:12:29;34.95;;;20.15;;
5987;SDS011;3021;51.000;6.980;2023-02-12T15:15:09;33.58;;;20.00;;
5987;SDS011;3021;51.000;6.980;2023-02-12T15:17:52;34.13;;;21.00;;
5987;SDS011;3021;51.000;6.980;2023-02-12T15:20:22;35.22;;;19.90;;
5987;SDS011;3021;51.000;6.980;2023-02-12T15:22:52;31.83;;;18.65;;
5987;SDS011;3021;51.000;6.980;2023-02-12T15:25:24;31.10;;;18.80;;
5987;SDS011;3021;51.000;6.980;2023-02-12T15:27:58;33.88;;;18.73;;
5987;SDS011;3021;51.000;6.980;2023-02-12T15:30:24;35.25;;;19.65;;
5987;SDS011;3021;51.000;6.980;2023-02-12T15:32:54;39.92;;;20.42;;
5987;SDS011;3021;51.000;6.980;2023-02-12T15:37:46;32.90;;;18.75;;
5987;SDS011;3021;51.000;6.980;2023-02-12T15:40:13;31.40;;;18.35;;
5987;SDS011;3021;51.000;6.980;2023-02-12T15:42:40;33.72;;;20.27;;
5987;SDS011;3021;51.000;6.980;2023-02-12T15:45:17;40.28;;;20.63;;
5987;SDS011;3021;51.000;6.980;2023-02-12T15:47:58;33.13;;;19.33;;
5987;SDS011;3021;51.000;6.980;2023-02-12T15:50:27;33.85;;;19.95;;
5987;SDS011;3021;51.000;6.980;2023-02-12T15:52:53;35.53;;;20.05;;
5987;SDS011;3021;51.000;6.980;2023-02-12T15:55:24;37.05;;;20.65;;
5987;SDS011;3021;51.000;6.980;2023-02-12T15:57:56;37.95;;;20.48;;
5987;SDS011;3021;51.000;6.980;2023-02-12T16:00:40;35.85;;;19.77;;
5987;SDS011;3021;51.000;6.980;2023-02-12T16:05:47;35.53;;;20.00;;
5987;SDS011;3021;51.000;6.980;2023-02-12T16:08:17;38.05;;;19.67;;
5987;SDS011;3021;51.000;6.980;2023-02-12T16:10:46;36.35;;;20.48;;
5987;SDS011;3021;51.000;6.980;2023-02-12T16:13:15;34.60;;;19.40;;
5987;SDS011;3021;51.000;6.980;2023-02-12T16:15:43;35.97;;;20.85;;
5987;SDS011;3021;51.000;6.980;2023-02-12T16:18:22;32.88;;;18.30;;
5987;SDS011;3021;51.000;6.980;2023-02-12T16:20:49;34.35;;;18.63;;
5987;SDS011;3021;51.000;6.980;2023-02-12T16:23:37;35.38;;;20.55;;
5987;SDS011;3021;51.000;6.980;2023-02-12T16:26:06;34.75;;;20.42;;
5987;SDS011;3021;51.000;6.980;2023-02-12T16:28:31;33.22;;;19.17;;
5987;SDS011;3021;51.000;6.980;2023-02-12T16:31:18;33.70;;;18.23;;
5987;SDS011;3021;51.000;6.980;2023-02-12T16:33:47;36.08;;;16.77;;
5987;SDS011;3021;51.000;6.980;2023-02-12T16:38:51;30.38;;;18.55;;
5987;SDS011;3021;51.000;6.980;2023-02-12T16:43:42;35.13;;;18.70;;
5987;SDS011;3021;51.000;6.980;2023-02-12T16:46:08;35.35;;;18.48;;
5987;SDS011;3021;51.000;6.980;2023-02-12T16:48:37;31.58;;;18.52;;
5987;SDS011;3021;51.000;6.980;2023-02-12T16:51:04;33.20;;;18.20;;
5987;SDS011;3021;51.000;6.980;2023-02-12T16:55:55;33.60;;;18.95;;
5987;SDS011;3021;51.000;6.980;2023-02-12T16:58:21;34.90;;;18.50;;
5987;SDS011;3021;51.000;6.980;2023-02-12T17:00:47;35.85;;;18.98;;
5987;SDS011;3021;51.000;6.980;2023-02-12T17:03:13;39.83;;;20.20;;
5987;SDS011;3021;51.000;6.980;2023-02-12T17:05:40;36.53;;;20.23;;
5987;SDS011;3021;51.000;6.980;2023-02-12T17:08:14;39.95;;;20.85;;
5987;SDS011;3021;51.000;6.980;2023-02-12T17:13:08;37.75;;;19.30;;
5987;SDS011;3021;51.000;6.980;2023-02-12T17:15:37;44.58;;;23.45;;
5987;SDS011;3021;51.000;6.980;2023-02-12T17:18:08;34.80;;;20.45;;
5987;SDS011;3021;51.000;6.980;2023-02-12T17:20:35;41.40;;;21.70;;
5987;SDS011;3021;51.000;6.980;2023-02-12T17:23:01;39.15;;;20.63;;
5987;SDS011;3021;51.000;6.980;2023-02-12T17:25:28;33.95;;;19.95;;
5987;SDS011;3021;51.000;6.980;2023-02-12T17:27:54;36.25;;;20.33;;
5987;SDS011;3021;51.000;6.980;2023-02-12T17:30:19;42.35;;;24.17;;
5987;SDS011;3021;51.000;6.980;2023-02-12T17:32:45;37.45;;;20.98;;
5987;SDS011;3021;51.000;6.980;2023-02-12T17:35:11;47.42;;;22.25;;
5987;SDS011;3021;51.000;6.980;2023-02-12T17:37:36;39.00;;;20.92;;
5987;SDS011;3021;51.000;6.980;2023-02-12T17:40:02;42.72;;;20.30;;
5987;SDS011;3021;51.000;6.980;2023-02-12T17:42:28;38.47;;;20.58;;
5987;SDS011;3021;51.000;6.980;2023-02-12T17:44:53;32.63;;;18.90;;
5987;SDS011;3021;51.000;6.980;2023-02-12T17:47:18;33.67;;;19.85;;
5987;SDS011;3021;51.000;6.980;2023-02-12T17:49:44;35.80;;;20.77;;
5987;SDS011;3021;51.000;6.980;2023-02-12T17:52:09;35.97;;;19.52;;
5987;SDS011;3021;51.000;6.980;2023-02-12T17:54:34;35.72;;;19.67;;
5987;SDS011;3021;51.000;6.980;2023-02-12T17:57:00;32.78;;;19.17;;
5987;SDS011;3021;51.000;6.980;2023-02-12T17:59:25;31.52;;;18.15;;
5987;SDS011;3021;51.000;6.980;2023-02-12T18:01:51;41.38;;;19.40;;